Bontekoning — PH9144 — position and weather

sailwx.info

Track history (hours):
 
Tides and Currents Weather Stations Pressure Air Temp Water Temp Dewpoint Dewpoint Depression Visibility Wind Speed Wind Dir Waves Ship Positions

Bontekoning

Last reported at 2015-Jul-27 17:05 UTC. Time now 2015-Jul-28 05:50 UTC.
Position N 38°59' E 007°57'.

; draft 2.6 m.

Type: Sailing vessel. MMSI: 244107000.

Date/timePositionNaut miles runAvg speedWind from/ knotsBaromVisibWave heightAir tempDewpointWater temp
2015-Jul-27 17:05N 38°59' E 007°57'20 5.5
2015-Jul-27 13:30N 39°08' E 008°20'1 0.1
2015-Jul-27 05:26N 39°09' E 008°19'0 0.0
2015-Jul-27 03:12N 39°09' E 008°19'0 0.0
2015-Jul-27 02:32N 39°09' E 008°19'0 0.0
2015-Jul-27 00:29N 39°09' E 008°19'0 0.0
2015-Jul-26 23:22N 39°09' E 008°19'0 0.0
2015-Jul-26 21:33N 39°09' E 008°19'1 0.2
2015-Jul-26 15:33N 39°09' E 008°20'29 1.3
2015-Jul-25 17:33N 38°51' E 008°51'5 4.9
2015-Jul-25 16:33N 38°55' E 008°55'0 0.0
2015-Jul-25 13:07N 38°55' E 008°55'0 0.6
2015-Jul-25 12:33N 38°55' E 008°55'5 5.0
2015-Jul-25 11:34N 38°57' E 009°01'4 4.5
2015-Jul-25 10:34N 39°00' E 009°05'5 4.6
2015-Jul-25 09:33N 39°05' E 009°05'6 5.7
2015-Jul-25 08:33N 39°11' E 009°06'2 2.2
2015-Jul-25 07:33N 39°13' E 009°07'0 0.0
2015-Jul-25 06:33N 39°13' E 009°07'0 0.0
2015-Jul-25 05:33N 39°13' E 009°07'0 0.0
2015-Jul-25 04:33N 39°13' E 009°07'0 0.0
2015-Jul-25 03:34N 39°13' E 009°07'0 0.0
2015-Jul-25 02:33N 39°13' E 009°07'0 0.0
2015-Jul-25 01:33N 39°13' E 009°07'0 0.0
2015-Jul-25 00:33N 39°13' E 009°07'0 0.0
2015-Jul-24 23:33N 39°13' E 009°07'0 0.0
2015-Jul-24 22:33N 39°13' E 009°07'0 0.0
2015-Jul-24 21:33N 39°13' E 009°07'0 0.0
2015-Jul-24 20:34N 39°13' E 009°07'0 0.0
2015-Jul-24 19:33N 39°13' E 009°07'0 0.0
2015-Jul-24 18:33N 39°13' E 009°07'0 0.0
2015-Jul-24 17:34N 39°13' E 009°07'0 0.0
2015-Jul-24 16:33N 39°13' E 009°07'0 0.0
2015-Jul-24 15:33N 39°13' E 009°07'0 0.0
2015-Jul-24 14:33N 39°13' E 009°07'0 0.0
2015-Jul-24 13:34N 39°13' E 009°07'0 0.0
2015-Jul-24 12:34N 39°13' E 009°07'0 0.0
2015-Jul-24 11:34N 39°13' E 009°07'0 0.0
2015-Jul-24 10:33N 39°13' E 009°07'0 0.0
2015-Jul-24 09:33N 39°13' E 009°07'0 0.0
2015-Jul-24 08:33N 39°13' E 009°07'0 0.0
2015-Jul-24 07:33N 39°13' E 009°07'0 0.0
2015-Jul-24 06:33N 39°13' E 009°07'0 0.0
2015-Jul-24 05:33N 39°13' E 009°07'0 0.0
2015-Jul-24 04:34N 39°13' E 009°07'0 0.0
2015-Jul-24 03:33N 39°13' E 009°07'0 0.0
2015-Jul-24 02:33N 39°13' E 009°07'0 0.0
2015-Jul-24 01:34N 39°13' E 009°07'0 0.0
2015-Jul-24 00:34N 39°13' E 009°07'0 0.0
2015-Jul-23 23:33N 39°13' E 009°07'0 0.0
2015-Jul-23 22:33N 39°13' E 009°07'0 0.0
2015-Jul-23 21:33N 39°13' E 009°07'0 0.0
2015-Jul-23 20:33N 39°13' E 009°07'0 0.0
2015-Jul-23 19:33N 39°13' E 009°07'0 0.0
2015-Jul-23 18:34N 39°13' E 009°07'0 0.0
2015-Jul-23 17:33N 39°13' E 009°07'0 0.0
2015-Jul-23 16:33N 39°13' E 009°07'0 0.0
2015-Jul-23 15:33N 39°13' E 009°07'0 0.0
2015-Jul-23 14:33N 39°13' E 009°07'0 0.0
2015-Jul-23 13:33N 39°13' E 009°07'3 3.0
2015-Jul-23 12:34N 39°10' E 009°06'4 3.6
2015-Jul-23 11:34N 39°06' E 009°06'4 4.3
2015-Jul-23 10:33N 39°02' E 009°04'5 4.6
2015-Jul-23 09:33N 38°58' E 009°01'5 4.7
2015-Jul-23 08:33N 38°55' E 008°57'4 4.2
2015-Jul-23 07:32N 38°53' E 008°52'3 0.2
2015-Jul-22 18:10N 38°54' E 008°49'0 0.0
2015-Jul-22 17:33N 38°54' E 008°49'0 0.0
2015-Jul-22 16:33N 38°54' E 008°49'0 0.0
2015-Jul-21 16:04N 38°54' E 008°49'0 0.0
2015-Jul-21 15:33N 38°54' E 008°49'0 0.0
2015-Jul-21 14:34N 38°54' E 008°49'0 0.0
2015-Jul-21 13:33N 38°54' E 008°49'0 0.0
2015-Jul-21 12:30N 38°54' E 008°49'0 0.0
2015-Jul-21 11:32N 38°54' E 008°49'0 0.0
2015-Jul-21 10:34N 38°54' E 008°49'14 0.8
2015-Jul-20 18:29N 38°54' E 008°32'13 4.5
2015-Jul-20 15:31N 39°04' E 008°20'5 2.4
2015-Jul-20 13:33N 39°09' E 008°19'0 0.0
2015-Jul-20 12:30N 39°09' E 008°19'0 0.0
2015-Jul-20 11:16N 39°09' E 008°19'0 0.0
2015-Jul-20 10:33N 39°09' E 008°19'0 0.0
2015-Jul-20 09:19N 39°09' E 008°19'0 0.0
2015-Jul-20 08:33N 39°09' E 008°19'0 0.0
2015-Jul-20 07:30N 39°09' E 008°19'0 0.0
2015-Jul-20 06:33N 39°09' E 008°19'0 0.0
2015-Jul-20 05:32N 39°09' E 008°19'0 0.0
2015-Jul-20 04:29N 39°09' E 008°19'0 0.0
2015-Jul-20 03:24N 39°09' E 008°19'0 0.0
2015-Jul-20 02:32N 39°09' E 008°19'0 0.0
2015-Jul-20 01:33N 39°09' E 008°19'0 0.0
2015-Jul-20 00:33N 39°09' E 008°19'0 0.0
2015-Jul-19 23:34N 39°09' E 008°19'0 0.0
2015-Jul-19 22:34N 39°09' E 008°19'0 0.0
2015-Jul-19 21:33N 39°09' E 008°19'0 0.0
2015-Jul-19 20:33N 39°09' E 008°19'0 0.0
2015-Jul-19 19:33N 39°09' E 008°19'0 0.0
2015-Jul-19 18:33N 39°09' E 008°19'0 0.0
2015-Jul-19 17:32N 39°09' E 008°19'0 0.1
2015-Jul-19 14:33N 39°09' E 008°19'12 2.8
2015-Jul-19 10:18N 38°57' E 008°23'3 4.2
2015-Jul-19 09:33N 38°57' E 008°28'8 0.4
2015-Jul-18 10:32N 38°52' E 008°36'4 4.5
2015-Jul-18 09:34N 38°51' E 008°42'  
Track history (hours):
 
Tides and Currents Weather Stations Pressure Air Temp Water Temp Dewpoint Dewpoint Depression Visibility Wind Speed Wind Dir Waves Ship Positions

Bontekoning

Last reported at 2015-Jul-27 17:05 UTC. Time now 2015-Jul-28 05:50 UTC.
Position N 38°59' E 007°57'.

; draft 2.6 m.

Type: Sailing vessel. MMSI: 244107000.

Date/timePositionNaut miles runAvg speedWind from/ knotsBaromVisibWave heightAir tempDewpointWater temp
2015-Jul-27 17:05N 38°59' E 007°57'20 5.5
2015-Jul-27 13:30N 39°08' E 008°20'1 0.1
2015-Jul-27 05:26N 39°09' E 008°19'0 0.0
2015-Jul-27 03:12N 39°09' E 008°19'0 0.0
2015-Jul-27 02:32N 39°09' E 008°19'0 0.0
2015-Jul-27 00:29N 39°09' E 008°19'0 0.0
2015-Jul-26 23:22N 39°09' E 008°19'0 0.0
2015-Jul-26 21:33N 39°09' E 008°19'1 0.2
2015-Jul-26 15:33N 39°09' E 008°20'29 1.3
2015-Jul-25 17:33N 38°51' E 008°51'5 4.9
2015-Jul-25 16:33N 38°55' E 008°55'0 0.0
2015-Jul-25 13:07N 38°55' E 008°55'0 0.6
2015-Jul-25 12:33N 38°55' E 008°55'5 5.0
2015-Jul-25 11:34N 38°57' E 009°01'4 4.5
2015-Jul-25 10:34N 39°00' E 009°05'5 4.6
2015-Jul-25 09:33N 39°05' E 009°05'6 5.7
2015-Jul-25 08:33N 39°11' E 009°06'2 2.2
2015-Jul-25 07:33N 39°13' E 009°07'0 0.0
2015-Jul-25 06:33N 39°13' E 009°07'0 0.0
2015-Jul-25 05:33N 39°13' E 009°07'0 0.0
2015-Jul-25 04:33N 39°13' E 009°07'0 0.0
2015-Jul-25 03:34N 39°13' E 009°07'0 0.0
2015-Jul-25 02:33N 39°13' E 009°07'0 0.0
2015-Jul-25 01:33N 39°13' E 009°07'0 0.0
2015-Jul-25 00:33N 39°13' E 009°07'0 0.0
2015-Jul-24 23:33N 39°13' E 009°07'0 0.0
2015-Jul-24 22:33N 39°13' E 009°07'0 0.0
2015-Jul-24 21:33N 39°13' E 009°07'0 0.0
2015-Jul-24 20:34N 39°13' E 009°07'0 0.0
2015-Jul-24 19:33N 39°13' E 009°07'0 0.0
2015-Jul-24 18:33N 39°13' E 009°07'0 0.0
2015-Jul-24 17:34N 39°13' E 009°07'0 0.0
2015-Jul-24 16:33N 39°13' E 009°07'0 0.0
2015-Jul-24 15:33N 39°13' E 009°07'0 0.0
2015-Jul-24 14:33N 39°13' E 009°07'0 0.0
2015-Jul-24 13:34N 39°13' E 009°07'0 0.0
2015-Jul-24 12:34N 39°13' E 009°07'0 0.0
2015-Jul-24 11:34N 39°13' E 009°07'0 0.0
2015-Jul-24 10:33N 39°13' E 009°07'0 0.0
2015-Jul-24 09:33N 39°13' E 009°07'0 0.0
2015-Jul-24 08:33N 39°13' E 009°07'0 0.0
2015-Jul-24 07:33N 39°13' E 009°07'0 0.0
2015-Jul-24 06:33N 39°13' E 009°07'0 0.0
2015-Jul-24 05:33N 39°13' E 009°07'0 0.0
2015-Jul-24 04:34N 39°13' E 009°07'0 0.0
2015-Jul-24 03:33N 39°13' E 009°07'0 0.0
2015-Jul-24 02:33N 39°13' E 009°07'0 0.0
2015-Jul-24 01:34N 39°13' E 009°07'0 0.0
2015-Jul-24 00:34N 39°13' E 009°07'0 0.0
2015-Jul-23 23:33N 39°13' E 009°07'0 0.0
2015-Jul-23 22:33N 39°13' E 009°07'0 0.0
2015-Jul-23 21:33N 39°13' E 009°07'0 0.0
2015-Jul-23 20:33N 39°13' E 009°07'0 0.0
2015-Jul-23 19:33N 39°13' E 009°07'0 0.0
2015-Jul-23 18:34N 39°13' E 009°07'0 0.0
2015-Jul-23 17:33N 39°13' E 009°07'0 0.0
2015-Jul-23 16:33N 39°13' E 009°07'0 0.0
2015-Jul-23 15:33N 39°13' E 009°07'0 0.0
2015-Jul-23 14:33N 39°13' E 009°07'0 0.0
2015-Jul-23 13:33N 39°13' E 009°07'3 3.0
2015-Jul-23 12:34N 39°10' E 009°06'4 3.6
2015-Jul-23 11:34N 39°06' E 009°06'4 4.3
2015-Jul-23 10:33N 39°02' E 009°04'5 4.6
2015-Jul-23 09:33N 38°58' E 009°01'5 4.7
2015-Jul-23 08:33N 38°55' E 008°57'4 4.2
2015-Jul-23 07:32N 38°53' E 008°52'3 0.2
2015-Jul-22 18:10N 38°54' E 008°49'0 0.0
2015-Jul-22 17:33N 38°54' E 008°49'0 0.0
2015-Jul-22 16:33N 38°54' E 008°49'0 0.0
2015-Jul-21 16:04N 38°54' E 008°49'0 0.0
2015-Jul-21 15:33N 38°54' E 008°49'0 0.0
2015-Jul-21 14:34N 38°54' E 008°49'0 0.0
2015-Jul-21 13:33N 38°54' E 008°49'0 0.0
2015-Jul-21 12:30N 38°54' E 008°49'0 0.0
2015-Jul-21 11:32N 38°54' E 008°49'0 0.0
2015-Jul-21 10:34N 38°54' E 008°49'14 0.8
2015-Jul-20 18:29N 38°54' E 008°32'13 4.5
2015-Jul-20 15:31N 39°04' E 008°20'5 2.4
2015-Jul-20 13:33N 39°09' E 008°19'0 0.0
2015-Jul-20 12:30N 39°09' E 008°19'0 0.0
2015-Jul-20 11:16N 39°09' E 008°19'0 0.0
2015-Jul-20 10:33N 39°09' E 008°19'0 0.0
2015-Jul-20 09:19N 39°09' E 008°19'0 0.0
2015-Jul-20 08:33N 39°09' E 008°19'0 0.0
2015-Jul-20 07:30N 39°09' E 008°19'0 0.0
2015-Jul-20 06:33N 39°09' E 008°19'0 0.0
2015-Jul-20 05:32N 39°09' E 008°19'0 0.0
2015-Jul-20 04:29N 39°09' E 008°19'0 0.0
2015-Jul-20 03:24N 39°09' E 008°19'0 0.0
2015-Jul-20 02:32N 39°09' E 008°19'0 0.0
2015-Jul-20 01:33N 39°09' E 008°19'0 0.0
2015-Jul-20 00:33N 39°09' E 008°19'0 0.0
2015-Jul-19 23:34N 39°09' E 008°19'0 0.0
2015-Jul-19 22:34N 39°09' E 008°19'0 0.0
2015-Jul-19 21:33N 39°09' E 008°19'0 0.0
2015-Jul-19 20:33N 39°09' E 008°19'0 0.0
2015-Jul-19 19:33N 39°09' E 008°19'0 0.0
2015-Jul-19 18:33N 39°09' E 008°19'0 0.0
2015-Jul-19 17:32N 39°09' E 008°19'0 0.1
2015-Jul-19 14:33N 39°09' E 008°19'12 2.8
2015-Jul-19 10:18N 38°57' E 008°23'3 4.2
2015-Jul-19 09:33N 38°57' E 008°28'8 0.4
2015-Jul-18 10:32N 38°52' E 008°36'4 4.5
2015-Jul-18 09:34N 38°51' E 008°42'  

Dump ship's entire track history